createdAt,value
2023-04-15T00:00:12.116Z,2.53
2023-04-15T00:02:38.871Z,2.00
2023-04-15T00:05:06.414Z,2.35
2023-04-15T00:07:33.149Z,1.80
2023-04-15T00:10:00.076Z,1.80
2023-04-15T00:12:28.372Z,1.70
2023-04-15T00:14:55.886Z,1.48
2023-04-15T00:17:22.902Z,2.53
2023-04-15T00:19:49.811Z,2.00
2023-04-15T00:22:17.353Z,1.85
2023-04-15T00:24:44.208Z,1.52
2023-04-15T00:27:11.506Z,2.47
2023-04-15T00:29:38.171Z,1.80
2023-04-15T00:32:04.774Z,2.50
2023-04-15T00:34:31.414Z,1.85
2023-04-15T00:36:58.440Z,1.65
2023-04-15T00:39:25.082Z,2.10
2023-04-15T00:41:52.027Z,2.67
2023-04-15T00:44:19.000Z,2.40
2023-04-15T00:46:46.725Z,2.47
2023-04-15T00:49:13.470Z,3.08
2023-04-15T00:51:40.617Z,2.63
2023-04-15T00:54:07.884Z,2.92
2023-04-15T00:56:38.062Z,2.03
2023-04-15T00:59:06.504Z,2.50
2023-04-15T01:01:35.412Z,3.08
2023-04-15T01:04:03.357Z,2.00
2023-04-15T01:06:32.393Z,1.80
2023-04-15T01:09:00.514Z,1.70
2023-04-15T01:11:28.160Z,1.90
2023-04-15T01:13:57.052Z,1.77
2023-04-15T01:16:24.109Z,1.75
2023-04-15T01:18:50.828Z,2.13
2023-04-15T01:21:18.339Z,2.30
2023-04-15T01:23:47.449Z,2.20
2023-04-15T01:26:14.512Z,2.00
2023-04-15T01:28:41.235Z,2.08
2023-04-15T01:31:11.869Z,2.10
2023-04-15T01:33:39.668Z,1.60
2023-04-15T01:36:08.560Z,2.08
2023-04-15T01:38:36.062Z,1.70
2023-04-15T01:41:04.798Z,1.67
2023-04-15T01:43:31.496Z,2.47
2023-04-15T01:45:58.198Z,2.97
2023-04-15T01:48:24.955Z,3.50
2023-04-15T01:50:53.528Z,2.53
2023-04-15T01:53:20.736Z,3.95
2023-04-15T01:55:47.525Z,3.28
2023-04-15T01:58:14.180Z,2.75
2023-04-15T02:00:41.245Z,3.90
2023-04-15T02:03:08.245Z,3.35
2023-04-15T02:05:34.922Z,3.28
2023-04-15T02:08:01.645Z,6.05
2023-04-15T02:10:28.272Z,5.18
2023-04-15T02:12:54.913Z,4.75
2023-04-15T02:15:21.675Z,3.70
2023-04-15T02:17:51.113Z,4.82
2023-04-15T02:20:19.351Z,2.95
2023-04-15T02:22:46.098Z,2.65
2023-04-15T02:25:12.852Z,3.45
2023-04-15T02:27:39.487Z,2.45
2023-04-15T02:30:07.452Z,2.22
2023-04-15T02:32:34.178Z,2.42
2023-04-15T02:35:09.045Z,3.22
2023-04-15T02:37:43.319Z,2.30
2023-04-15T02:40:13.947Z,2.58
2023-04-15T02:42:41.552Z,2.22
2023-04-15T02:45:08.802Z,2.22
2023-04-15T02:47:36.278Z,2.40
2023-04-15T02:50:08.121Z,2.15
2023-04-15T02:52:34.787Z,2.10
2023-04-15T02:55:02.680Z,1.90
2023-04-15T02:57:29.772Z,2.15
2023-04-15T02:59:56.435Z,1.75
2023-04-15T03:02:23.312Z,2.28
2023-04-15T03:04:50.842Z,2.80
2023-04-15T03:07:18.760Z,2.03
2023-04-15T03:09:46.212Z,2.88
2023-04-15T03:12:14.158Z,3.42
2023-04-15T03:14:41.158Z,2.97
2023-04-15T03:17:08.843Z,3.70
2023-04-15T03:19:35.614Z,3.75
2023-04-15T03:22:03.370Z,3.08
2023-04-15T03:24:30.394Z,2.63
2023-04-15T03:26:57.886Z,3.85
2023-04-15T03:29:24.770Z,2.85
2023-04-15T03:31:52.528Z,3.60
2023-04-15T03:34:19.238Z,4.00
2023-04-15T03:36:46.864Z,4.47
2023-04-15T03:39:13.724Z,4.22
2023-04-15T03:41:40.620Z,4.10
2023-04-15T03:44:07.272Z,6.32
2023-04-15T03:46:33.943Z,3.83
2023-04-15T03:49:02.405Z,4.28
2023-04-15T03:51:29.487Z,5.20
2023-04-15T03:53:57.151Z,5.93
2023-04-15T03:56:23.718Z,4.97
2023-04-15T03:58:50.400Z,7.30
2023-04-15T04:01:17.425Z,4.63
2023-04-15T04:03:44.236Z,5.72
2023-04-15T04:06:12.609Z,4.72
2023-04-15T04:08:39.283Z,6.97
2023-04-15T04:11:05.929Z,5.38
2023-04-15T04:13:32.582Z,6.28
2023-04-15T04:15:59.347Z,4.38
2023-04-15T04:18:25.993Z,5.43
2023-04-15T04:20:53.759Z,4.55
2023-04-15T04:23:20.759Z,5.57
2023-04-15T04:25:47.711Z,2.75
2023-04-15T04:28:14.324Z,3.08
2023-04-15T04:30:41.082Z,3.30
2023-04-15T04:33:07.947Z,3.20
2023-04-15T04:35:37.672Z,3.30
2023-04-15T04:38:04.628Z,3.97
2023-04-15T04:40:31.436Z,3.88
2023-04-15T04:42:58.135Z,4.35
2023-04-15T04:45:24.784Z,3.13
2023-04-15T04:47:51.558Z,3.97
2023-04-15T04:50:18.235Z,3.92
2023-04-15T04:52:45.058Z,3.08
2023-04-15T04:55:11.770Z,3.08
2023-04-15T04:57:39.650Z,2.90
2023-04-15T05:00:08.584Z,2.65
2023-04-15T05:02:35.491Z,2.95
2023-04-15T05:05:02.325Z,4.20
2023-04-15T05:07:28.972Z,2.22
2023-04-15T05:09:55.734Z,2.85
2023-04-15T05:12:22.481Z,3.08
2023-04-15T05:14:49.180Z,3.00
2023-04-15T05:17:15.829Z,3.17
2023-04-15T05:19:42.466Z,3.38
2023-04-15T05:22:09.173Z,2.67
2023-04-15T05:24:36.500Z,3.60
2023-04-15T05:27:03.793Z,3.00
2023-04-15T05:29:30.706Z,3.90
2023-04-15T05:31:57.599Z,2.78
2023-04-15T05:34:24.232Z,2.60
2023-04-15T05:36:50.874Z,2.88
2023-04-15T05:39:17.495Z,3.58
2023-04-15T05:41:44.578Z,2.35
2023-04-15T05:44:11.248Z,2.47
2023-04-15T05:46:37.980Z,3.55
2023-04-15T05:49:04.742Z,3.03
2023-04-15T05:51:31.839Z,2.97
2023-04-15T05:53:58.471Z,2.67
2023-04-15T05:56:27.091Z,2.67
2023-04-15T05:58:53.881Z,3.13
2023-04-15T06:01:20.910Z,2.30
2023-04-15T06:03:47.699Z,4.97
2023-04-15T06:06:15.494Z,2.65
2023-04-15T06:08:42.161Z,2.60
2023-04-15T06:11:08.859Z,2.50
2023-04-15T06:13:40.666Z,3.10
2023-04-15T06:16:08.106Z,2.88
2023-04-15T06:18:34.782Z,2.92
2023-04-15T06:21:01.486Z,2.85
2023-04-15T06:23:28.154Z,2.72
2023-04-15T06:25:54.754Z,3.33
2023-04-15T06:28:22.979Z,3.58
2023-04-15T06:30:49.618Z,2.30
2023-04-15T06:33:16.249Z,2.75
2023-04-15T06:35:43.193Z,2.58
2023-04-15T06:38:09.762Z,2.22
2023-04-15T06:40:36.825Z,2.85
2023-04-15T06:43:04.911Z,2.78
2023-04-15T06:45:32.262Z,2.53
2023-04-15T06:47:58.978Z,2.90
2023-04-15T06:50:25.743Z,2.40
2023-04-15T06:52:52.615Z,2.92
2023-04-15T06:55:19.401Z,3.75
2023-04-15T06:57:46.471Z,2.45
2023-04-15T07:00:13.749Z,2.33
2023-04-15T07:02:40.600Z,2.90
2023-04-15T07:05:08.414Z,3.10
2023-04-15T07:07:36.148Z,3.08
2023-04-15T07:10:04.133Z,2.72
2023-04-15T07:12:31.109Z,2.53
2023-04-15T07:14:58.839Z,2.85
2023-04-15T07:17:25.589Z,3.70
2023-04-15T07:19:52.490Z,3.25
2023-04-15T07:22:19.315Z,3.40
2023-04-15T07:24:46.704Z,2.67
2023-04-15T07:27:13.402Z,2.80
2023-04-15T07:29:40.681Z,2.60
2023-04-15T07:32:07.475Z,2.58
2023-04-15T07:34:34.225Z,3.25
2023-04-15T07:37:01.517Z,2.58
2023-04-15T07:39:29.298Z,2.40
2023-04-15T07:41:56.369Z,2.80
2023-04-15T07:44:23.013Z,2.83
2023-04-15T07:46:49.714Z,2.38
2023-04-15T07:49:16.341Z,2.30
2023-04-15T07:51:44.023Z,2.30
2023-04-15T07:54:10.660Z,3.92
2023-04-15T07:56:37.293Z,2.88
2023-04-15T07:59:04.843Z,2.35
2023-04-15T08:01:36.177Z,2.13
2023-04-15T08:04:03.991Z,2.10
2023-04-15T08:06:31.074Z,2.60
2023-04-15T08:08:57.900Z,2.10
2023-04-15T08:11:25.019Z,1.98
2023-04-15T08:13:52.597Z,2.08
2023-04-15T08:16:23.608Z,2.10
2023-04-15T08:18:52.201Z,1.83
2023-04-15T08:21:20.040Z,2.55
2023-04-15T08:23:48.525Z,3.00
2023-04-15T08:26:15.765Z,2.33
2023-04-15T08:28:44.191Z,1.92
2023-04-15T08:31:10.932Z,2.28
2023-04-15T08:33:37.570Z,1.70
2023-04-15T08:36:04.679Z,1.58
2023-04-15T08:38:31.378Z,1.90
2023-04-15T08:41:03.868Z,1.80
2023-04-15T08:46:04.436Z,1.97
2023-04-15T08:48:33.463Z,1.92
2023-04-15T08:51:00.927Z,2.05
2023-04-15T08:53:30.433Z,1.95
2023-04-15T08:55:58.639Z,1.63
2023-04-15T08:58:26.200Z,1.60
2023-04-15T09:00:53.237Z,1.75
2023-04-15T09:03:21.901Z,1.75
2023-04-15T09:05:48.669Z,1.70
2023-04-15T09:08:15.793Z,1.83
2023-04-15T09:10:42.687Z,0.95
2023-04-15T09:13:09.597Z,1.42
2023-04-15T09:15:39.007Z,1.10
2023-04-15T09:18:07.020Z,1.38
2023-04-15T09:20:44.280Z,1.20
2023-04-15T09:23:15.393Z,1.88
2023-04-15T09:25:44.273Z,1.20
2023-04-15T09:28:11.432Z,1.73
2023-04-15T09:30:39.229Z,1.20
2023-04-15T09:33:08.350Z,0.82
2023-04-15T09:35:38.132Z,0.80
2023-04-15T09:38:09.926Z,2.38
2023-04-15T09:40:41.219Z,1.75
2023-04-15T09:43:09.523Z,0.43
2023-04-15T09:45:37.206Z,0.57
2023-04-15T09:48:25.516Z,0.45
2023-04-15T09:50:54.049Z,0.52
2023-04-15T09:53:22.540Z,0.50
2023-04-15T09:56:01.510Z,0.47
2023-04-15T09:58:30.870Z,0.80
2023-04-15T10:00:59.852Z,0.93
2023-04-15T10:03:32.051Z,0.80
2023-04-15T10:06:00.550Z,1.00
2023-04-15T10:08:33.745Z,0.88
2023-04-15T10:11:05.040Z,0.47
2023-04-15T10:13:37.448Z,0.68
2023-04-15T10:16:11.839Z,0.55
2023-04-15T10:18:42.926Z,0.63
2023-04-15T10:21:10.100Z,0.40
2023-04-15T10:23:36.911Z,0.40
2023-04-15T10:26:07.656Z,0.50
2023-04-15T10:28:34.874Z,0.60
2023-04-15T10:31:01.847Z,0.30
2023-04-15T10:33:29.751Z,0.40
2023-04-15T10:35:57.692Z,0.43
2023-04-15T10:38:42.558Z,0.32
2023-04-15T10:41:22.732Z,0.50
2023-04-15T10:44:05.428Z,0.20
2023-04-15T10:46:45.364Z,0.40
2023-04-15T10:49:15.444Z,0.22
2023-04-15T10:51:44.846Z,0.20
2023-04-15T10:54:26.586Z,0.30
2023-04-15T10:57:09.156Z,0.75
2023-04-15T11:00:04.770Z,0.40
2023-04-15T11:03:08.181Z,0.30
2023-04-15T11:05:52.426Z,0.43
2023-04-15T11:08:19.433Z,0.30
2023-04-15T11:10:46.046Z,0.30
2023-04-15T11:13:12.750Z,0.60
2023-04-15T11:15:42.006Z,0.30
2023-04-15T11:18:12.741Z,0.47
2023-04-15T11:20:43.035Z,0.40
2023-04-15T11:23:14.462Z,0.20
2023-04-15T11:25:43.283Z,0.30
2023-04-15T11:28:12.090Z,0.28
2023-04-15T11:30:40.378Z,0.93
2023-04-15T11:33:10.026Z,0.90
2023-04-15T11:35:36.935Z,1.30
2023-04-15T11:38:10.741Z,1.35
2023-04-15T11:40:38.244Z,1.38
2023-04-15T11:43:10.356Z,1.13
2023-04-15T11:48:24.883Z,3.35
2023-04-15T11:50:59.575Z,2.65
2023-04-15T11:53:42.967Z,2.50
2023-04-15T11:56:17.465Z,2.00
2023-04-15T11:58:46.517Z,1.20
2023-04-15T12:01:13.796Z,1.00
2023-04-15T12:03:48.476Z,1.00
2023-04-15T12:06:19.679Z,0.77
2023-04-15T12:08:55.750Z,0.30
2023-04-15T12:11:31.988Z,1.02
2023-04-15T12:14:24.638Z,1.23
2023-04-15T12:16:58.284Z,0.77
2023-04-15T12:19:30.877Z,1.20
2023-04-15T12:22:01.954Z,1.08
2023-04-15T12:24:32.253Z,0.80
2023-04-15T12:27:09.588Z,1.30
2023-04-15T12:29:39.419Z,1.10
2023-04-15T12:32:11.786Z,1.30
2023-04-15T12:34:44.937Z,1.13
2023-04-15T12:37:14.359Z,1.00
2023-04-15T12:39:43.364Z,0.82
2023-04-15T12:42:10.925Z,0.90
2023-04-15T12:44:38.857Z,1.25
2023-04-15T12:47:05.678Z,1.00
2023-04-15T12:49:33.562Z,1.65
2023-04-15T12:52:03.585Z,1.25
2023-04-15T12:54:31.564Z,1.20
2023-04-15T12:56:59.471Z,1.48
2023-04-15T12:59:27.560Z,0.85
2023-04-15T13:01:54.717Z,1.20
2023-04-15T13:04:22.317Z,1.50
2023-04-15T13:06:49.562Z,1.33
2023-04-15T13:09:16.320Z,3.10
2023-04-15T13:11:43.178Z,1.90
2023-04-15T13:14:11.725Z,1.25
2023-04-15T13:16:39.038Z,1.63
2023-04-15T13:19:05.708Z,1.15
2023-04-15T13:21:35.602Z,0.70
2023-04-15T13:24:03.538Z,1.00
2023-04-15T13:26:31.712Z,1.08
2023-04-15T13:28:58.396Z,1.10
2023-04-15T13:31:25.208Z,1.50
2023-04-15T13:33:51.849Z,0.45
2023-04-15T13:36:18.720Z,1.00
2023-04-15T13:38:45.355Z,0.82
2023-04-15T13:41:12.196Z,0.65
2023-04-15T13:43:38.943Z,0.73
2023-04-15T13:46:05.870Z,2.67
2023-04-15T13:48:32.537Z,1.10
2023-04-15T13:50:59.191Z,0.68
2023-04-15T13:53:37.642Z,1.30
2023-04-15T13:56:06.664Z,1.02
2023-04-15T13:58:33.318Z,1.27
2023-04-15T14:01:02.084Z,0.80
2023-04-15T14:03:31.064Z,0.60
2023-04-15T14:05:58.476Z,0.82
2023-04-15T14:08:25.918Z,2.33
2023-04-15T14:10:52.624Z,0.63
2023-04-15T14:13:19.739Z,0.90
2023-04-15T14:15:47.839Z,1.15
2023-04-15T14:18:14.622Z,1.33
2023-04-15T14:20:41.296Z,1.35
2023-04-15T14:23:08.033Z,1.20
2023-04-15T14:25:34.942Z,0.93
2023-04-15T14:28:02.540Z,1.00
2023-04-15T14:30:29.242Z,2.08
2023-04-15T14:32:55.984Z,2.00
2023-04-15T14:35:24.673Z,12.23
2023-04-15T14:37:51.615Z,2.22
2023-04-15T14:40:19.258Z,2.13
2023-04-15T14:42:46.373Z,3.55
2023-04-15T14:45:13.119Z,1.30
2023-04-15T14:47:39.961Z,1.60
2023-04-15T14:50:07.150Z,1.58
2023-04-15T14:52:38.785Z,1.52
2023-04-15T14:55:10.678Z,1.90
2023-04-15T14:57:37.983Z,1.77
2023-04-15T15:00:08.546Z,1.92
2023-04-15T15:02:39.806Z,9.82
2023-04-15T15:07:36.095Z,2.92
2023-04-15T15:10:03.310Z,3.10
2023-04-15T15:12:29.981Z,4.05
2023-04-15T15:14:56.986Z,3.42
2023-04-15T15:17:23.687Z,2.47
2023-04-15T15:19:51.710Z,1.90
2023-04-15T15:22:20.847Z,2.20
2023-04-15T15:24:48.348Z,1.38
2023-04-15T15:27:15.071Z,1.55
2023-04-15T15:29:41.830Z,1.60
2023-04-15T15:32:08.524Z,1.60
2023-04-15T15:34:35.151Z,1.40
2023-04-15T15:37:01.992Z,1.77
2023-04-15T15:39:28.770Z,1.63
2023-04-15T15:41:55.448Z,2.13
2023-04-15T15:44:22.132Z,1.65
2023-04-15T15:46:50.460Z,1.67
2023-04-15T15:49:17.324Z,1.52
2023-04-15T15:51:44.030Z,1.67
2023-04-15T15:54:10.715Z,1.00
2023-04-15T15:56:39.544Z,1.25
2023-04-15T15:59:06.620Z,1.05
2023-04-15T16:01:33.586Z,1.73
2023-04-15T16:04:00.916Z,0.90
2023-04-15T16:06:28.288Z,0.95
2023-04-15T16:08:55.105Z,1.20
2023-04-15T16:11:21.884Z,1.27
2023-04-15T16:13:48.633Z,1.10
2023-04-15T16:16:15.806Z,1.58
2023-04-15T16:18:43.662Z,1.65
2023-04-15T16:21:10.556Z,1.63
2023-04-15T16:23:38.115Z,1.27
2023-04-15T16:26:04.888Z,2.90
2023-04-15T16:28:31.915Z,2.47
2023-04-15T16:30:58.564Z,2.20
2023-04-15T16:33:25.452Z,2.00
2023-04-15T16:35:52.390Z,2.53
2023-04-15T16:38:19.047Z,2.38
2023-04-15T16:40:45.869Z,2.10
2023-04-15T16:43:13.975Z,2.50
2023-04-15T16:45:40.705Z,2.70
2023-04-15T16:48:07.503Z,3.42
2023-04-15T16:50:34.194Z,4.60
2023-04-15T16:53:01.592Z,2.33
2023-04-15T16:55:28.354Z,1.70
2023-04-15T16:58:02.968Z,1.77
2023-04-15T17:00:33.508Z,1.92
2023-04-15T17:03:01.090Z,2.00
2023-04-15T17:05:28.398Z,7.97
2023-04-15T17:07:55.522Z,3.95
2023-04-15T17:10:22.550Z,3.58
2023-04-15T17:12:52.002Z,4.63
2023-04-15T17:15:21.014Z,4.03
2023-04-15T17:17:47.713Z,4.63
2023-04-15T17:20:15.069Z,4.28
2023-04-15T17:22:41.739Z,3.42
2023-04-15T17:25:09.009Z,4.65
2023-04-15T17:27:36.068Z,4.45
2023-04-15T17:30:02.746Z,4.22
2023-04-15T17:32:34.331Z,4.38
2023-04-15T17:35:05.619Z,4.70
2023-04-15T17:37:35.576Z,7.45
2023-04-15T17:40:03.461Z,7.72
2023-04-15T17:42:30.133Z,7.93
2023-04-15T17:44:56.773Z,6.72
2023-04-15T17:47:23.428Z,10.82
2023-04-15T17:49:51.257Z,12.15
2023-04-15T17:52:17.881Z,7.97
2023-04-15T17:54:46.130Z,20.38
2023-04-15T17:57:12.752Z,12.25
2023-04-15T17:59:43.946Z,9.90
2023-04-15T18:02:11.698Z,9.47
2023-04-15T18:04:39.809Z,7.07
2023-04-15T18:07:06.616Z,5.47
2023-04-15T18:09:33.765Z,4.85
2023-04-15T18:12:01.709Z,3.70
2023-04-15T18:14:34.611Z,3.92
2023-04-15T18:17:05.173Z,3.72
2023-04-15T18:19:32.113Z,2.60
2023-04-15T18:22:00.281Z,2.50
2023-04-15T18:24:27.465Z,2.63
2023-04-15T18:26:56.520Z,2.30
2023-04-15T18:29:23.350Z,2.13
2023-04-15T18:31:50.126Z,1.50
2023-04-15T18:34:16.826Z,1.40
2023-04-15T18:36:43.608Z,1.10
2023-04-15T18:39:10.693Z,1.52
2023-04-15T18:41:37.395Z,1.45
2023-04-15T18:44:04.018Z,2.58
2023-04-15T18:46:30.658Z,3.00
2023-04-15T18:48:57.779Z,4.25
2023-04-15T18:51:24.452Z,5.15
2023-04-15T18:53:51.619Z,3.10
2023-04-15T18:56:18.520Z,3.92
2023-04-15T18:59:28.173Z,3.95
2023-04-15T19:01:32.535Z,3.38
2023-04-15T19:03:59.683Z,3.30
2023-04-15T19:06:27.280Z,5.03
2023-04-15T19:08:54.737Z,2.67
2023-04-15T19:11:22.000Z,2.78
2023-04-15T19:13:49.154Z,4.95
2023-04-15T19:16:16.164Z,4.50
2023-04-15T19:18:43.251Z,4.75
2023-04-15T19:21:12.531Z,6.10
2023-04-15T19:23:39.741Z,5.10
2023-04-15T19:26:08.265Z,6.82
2023-04-15T19:28:35.020Z,9.32
2023-04-15T19:31:04.819Z,6.57
2023-04-15T19:33:32.047Z,6.10
2023-04-15T19:36:04.230Z,4.45
2023-04-15T19:40:58.817Z,3.55
2023-04-15T19:43:25.983Z,4.75
2023-04-15T19:45:54.758Z,4.95
2023-04-15T19:48:22.922Z,5.05
2023-04-15T19:50:49.657Z,4.75
2023-04-15T19:53:17.012Z,4.50
2023-04-15T19:55:44.194Z,4.38
2023-04-15T19:58:10.837Z,3.63
2023-04-15T20:00:38.643Z,3.70
2023-04-15T20:03:05.810Z,3.67
2023-04-15T20:05:33.025Z,3.67
2023-04-15T20:08:09.828Z,4.63
2023-04-15T20:10:41.261Z,6.57
2023-04-15T20:13:08.028Z,4.63
2023-04-15T20:15:34.861Z,4.40
2023-04-15T20:18:01.585Z,3.40
2023-04-15T20:20:28.470Z,4.05
2023-04-15T20:22:56.316Z,4.03
2023-04-15T20:25:23.455Z,5.40
2023-04-15T20:27:51.167Z,4.22
2023-04-15T20:30:18.630Z,4.85
2023-04-15T20:32:45.834Z,4.43
2023-04-15T20:35:12.462Z,5.97
2023-04-15T20:37:40.704Z,4.00
2023-04-15T20:40:07.969Z,5.40
2023-04-15T20:42:34.664Z,3.55
2023-04-15T20:45:02.190Z,3.35
2023-04-15T20:47:29.376Z,4.28
2023-04-15T20:49:56.270Z,3.03
2023-04-15T20:52:22.963Z,4.00
2023-04-15T20:54:50.190Z,5.82
2023-04-15T20:57:17.072Z,4.40
2023-04-15T20:59:43.898Z,6.95
2023-04-15T21:02:10.721Z,5.22
2023-04-15T21:04:38.422Z,2.80
2023-04-15T21:07:05.273Z,4.60
2023-04-15T21:09:31.964Z,3.83
2023-04-15T21:12:01.612Z,2.90
2023-04-15T21:14:30.346Z,3.25
2023-04-15T21:16:58.560Z,5.35
2023-04-15T21:19:25.279Z,2.65
2023-04-15T21:21:52.340Z,2.42
2023-04-15T21:24:19.135Z,2.10
2023-04-15T21:26:46.004Z,2.03
2023-04-15T21:29:13.265Z,2.60
2023-04-15T21:31:40.379Z,1.63
2023-04-15T21:34:07.900Z,2.38
2023-04-15T21:36:35.038Z,2.65
2023-04-15T21:39:01.862Z,2.00
2023-04-15T21:41:28.600Z,2.50
2023-04-15T21:43:55.425Z,2.45
2023-04-15T21:46:25.457Z,2.63
2023-04-15T21:48:59.504Z,2.55
2023-04-15T21:51:26.775Z,3.60
2023-04-15T21:53:53.536Z,4.53
2023-04-15T21:56:23.884Z,2.75
2023-04-15T21:58:56.887Z,3.42
2023-04-15T22:01:24.261Z,2.35
2023-04-15T22:03:51.383Z,4.22
2023-04-15T22:06:19.420Z,2.30
2023-04-15T22:09:10.651Z,2.40
2023-04-15T22:11:33.085Z,2.60
2023-04-15T22:13:59.909Z,2.95
2023-04-15T22:16:27.226Z,2.70
2023-04-15T22:18:56.976Z,2.22
2023-04-15T22:21:24.039Z,2.17
2023-04-15T22:23:52.512Z,1.45
2023-04-15T22:26:20.038Z,1.73
2023-04-15T22:28:46.692Z,1.48
2023-04-15T22:31:14.833Z,1.70
2023-04-15T22:33:41.537Z,1.88
2023-04-15T22:36:08.226Z,1.80
2023-04-15T22:38:34.882Z,2.03
2023-04-15T22:41:01.647Z,2.65
2023-04-15T22:43:28.292Z,1.83
2023-04-15T22:45:55.302Z,1.40
2023-04-15T22:48:22.631Z,1.48
2023-04-15T22:50:49.859Z,2.35
2023-04-15T22:53:20.286Z,1.80
2023-04-15T22:55:47.915Z,2.13
2023-04-15T22:58:16.340Z,2.03
2023-04-15T23:00:43.140Z,1.58
2023-04-15T23:03:10.239Z,2.45
2023-04-15T23:05:37.500Z,1.75
2023-04-15T23:08:04.146Z,1.20
2023-04-15T23:10:30.903Z,3.00
2023-04-15T23:12:59.618Z,1.85
2023-04-15T23:15:26.559Z,2.63
2023-04-15T23:17:53.219Z,2.80
2023-04-15T23:20:19.912Z,5.22
2023-04-15T23:22:46.644Z,3.10
2023-04-15T23:25:13.390Z,3.70
2023-04-15T23:27:40.005Z,3.10
2023-04-15T23:30:07.455Z,2.50
2023-04-15T23:32:34.209Z,1.63
2023-04-15T23:35:01.033Z,1.50
2023-04-15T23:37:27.666Z,2.35
2023-04-15T23:39:55.766Z,2.42
2023-04-15T23:42:23.338Z,2.03
2023-04-15T23:44:51.206Z,3.45
2023-04-15T23:47:17.828Z,1.83
2023-04-15T23:49:44.495Z,2.30
2023-04-15T23:52:11.092Z,2.47
2023-04-15T23:54:37.835Z,1.95
2023-04-15T23:57:04.535Z,1.52
2023-04-15T23:59:31.152Z,1.50
